sensor_id;sensor_type;location;lat;lon;timestamp;P1;durP1;ratioP1;P2;durP2;ratioP2
9918;SDS011;4998;51.024;13.828;2023-04-10T00:02:14;21.63;;;15.80;;
9918;SDS011;4998;51.024;13.828;2023-04-10T00:04:41;18.57;;;14.97;;
9918;SDS011;4998;51.024;13.828;2023-04-10T00:07:08;18.10;;;14.90;;
9918;SDS011;4998;51.024;13.828;2023-04-10T00:09:37;17.87;;;13.93;;
9918;SDS011;4998;51.024;13.828;2023-04-10T00:12:04;22.17;;;16.53;;
9918;SDS011;4998;51.024;13.828;2023-04-10T00:14:31;20.30;;;15.70;;
9918;SDS011;4998;51.024;13.828;2023-04-10T00:16:59;18.70;;;15.47;;
9918;SDS011;4998;51.024;13.828;2023-04-10T00:19:26;19.17;;;16.10;;
9918;SDS011;4998;51.024;13.828;2023-04-10T00:21:53;18.60;;;15.37;;
9918;SDS011;4998;51.024;13.828;2023-04-10T00:24:21;20.50;;;15.97;;
9918;SDS011;4998;51.024;13.828;2023-04-10T00:26:49;21.10;;;16.00;;
9918;SDS011;4998;51.024;13.828;2023-04-10T00:29:16;18.50;;;15.43;;
9918;SDS011;4998;51.024;13.828;2023-04-10T00:31:43;19.50;;;15.23;;
9918;SDS011;4998;51.024;13.828;2023-04-10T00:34:10;19.20;;;15.70;;
9918;SDS011;4998;51.024;13.828;2023-04-10T00:36:38;21.60;;;17.03;;
9918;SDS011;4998;51.024;13.828;2023-04-10T00:39:05;21.43;;;15.70;;
9918;SDS011;4998;51.024;13.828;2023-04-10T00:41:32;18.57;;;14.80;;
9918;SDS011;4998;51.024;13.828;2023-04-10T00:44:01;20.27;;;15.37;;
9918;SDS011;4998;51.024;13.828;2023-04-10T00:46:28;20.30;;;15.90;;
9918;SDS011;4998;51.024;13.828;2023-04-10T00:48:56;23.43;;;15.70;;
9918;SDS011;4998;51.024;13.828;2023-04-10T00:51:23;20.70;;;15.53;;
9918;SDS011;4998;51.024;13.828;2023-04-10T00:53:51;19.27;;;14.83;;
9918;SDS011;4998;51.024;13.828;2023-04-10T00:56:19;25.43;;;16.10;;
9918;SDS011;4998;51.024;13.828;2023-04-10T00:58:46;19.23;;;15.10;;
9918;SDS011;4998;51.024;13.828;2023-04-10T01:01:15;17.63;;;14.60;;
9918;SDS011;4998;51.024;13.828;2023-04-10T01:03:43;18.77;;;15.10;;
9918;SDS011;4998;51.024;13.828;2023-04-10T01:06:12;18.50;;;13.97;;
9918;SDS011;4998;51.024;13.828;2023-04-10T01:08:46;20.60;;;16.50;;
9918;SDS011;4998;51.024;13.828;2023-04-10T01:11:23;17.87;;;13.37;;
9918;SDS011;4998;51.024;13.828;2023-04-10T01:13:58;20.37;;;14.70;;
9918;SDS011;4998;51.024;13.828;2023-04-10T01:16:35;18.60;;;13.97;;
9918;SDS011;4998;51.024;13.828;2023-04-10T01:19:10;17.57;;;13.50;;
9918;SDS011;4998;51.024;13.828;2023-04-10T01:21:51;20.23;;;15.17;;
9918;SDS011;4998;51.024;13.828;2023-04-10T01:24:20;20.20;;;15.07;;
9918;SDS011;4998;51.024;13.828;2023-04-10T01:27:03;19.37;;;14.90;;
9918;SDS011;4998;51.024;13.828;2023-04-10T01:29:38;18.37;;;14.67;;
9918;SDS011;4998;51.024;13.828;2023-04-10T01:32:10;20.97;;;15.57;;
9918;SDS011;4998;51.024;13.828;2023-04-10T01:34:41;19.50;;;14.90;;
9918;SDS011;4998;51.024;13.828;2023-04-10T01:37:12;20.43;;;15.50;;
9918;SDS011;4998;51.024;13.828;2023-04-10T01:39:42;20.67;;;15.80;;
9918;SDS011;4998;51.024;13.828;2023-04-10T01:42:13;18.97;;;15.00;;
9918;SDS011;4998;51.024;13.828;2023-04-10T01:44:44;20.30;;;15.47;;
9918;SDS011;4998;51.024;13.828;2023-04-10T01:47:13;18.73;;;14.40;;
9918;SDS011;4998;51.024;13.828;2023-04-10T01:49:42;19.27;;;14.50;;
9918;SDS011;4998;51.024;13.828;2023-04-10T01:52:12;17.70;;;14.00;;
9918;SDS011;4998;51.024;13.828;2023-04-10T01:54:40;18.23;;;14.53;;
9918;SDS011;4998;51.024;13.828;2023-04-10T01:57:09;19.20;;;14.10;;
9918;SDS011;4998;51.024;13.828;2023-04-10T01:59:39;16.90;;;14.23;;
9918;SDS011;4998;51.024;13.828;2023-04-10T02:02:07;19.50;;;15.33;;
9918;SDS011;4998;51.024;13.828;2023-04-10T02:04:35;19.90;;;14.90;;
9918;SDS011;4998;51.024;13.828;2023-04-10T02:07:03;21.73;;;15.40;;
9918;SDS011;4998;51.024;13.828;2023-04-10T02:09:36;17.83;;;14.60;;
9918;SDS011;4998;51.024;13.828;2023-04-10T02:12:12;19.30;;;15.33;;
9918;SDS011;4998;51.024;13.828;2023-04-10T02:14:43;17.60;;;13.70;;
9918;SDS011;4998;51.024;13.828;2023-04-10T02:17:15;18.93;;;14.30;;
9918;SDS011;4998;51.024;13.828;2023-04-10T02:19:46;19.70;;;15.37;;
9918;SDS011;4998;51.024;13.828;2023-04-10T02:22:14;17.87;;;14.10;;
9918;SDS011;4998;51.024;13.828;2023-04-10T02:24:41;18.93;;;14.97;;
9918;SDS011;4998;51.024;13.828;2023-04-10T02:27:08;14.47;;;12.57;;
9918;SDS011;4998;51.024;13.828;2023-04-10T02:29:35;17.60;;;13.97;;
9918;SDS011;4998;51.024;13.828;2023-04-10T02:32:02;19.20;;;14.57;;
9918;SDS011;4998;51.024;13.828;2023-04-10T02:34:32;17.90;;;13.70;;
9918;SDS011;4998;51.024;13.828;2023-04-10T02:36:59;17.00;;;13.93;;
9918;SDS011;4998;51.024;13.828;2023-04-10T02:39:26;16.97;;;13.70;;
9918;SDS011;4998;51.024;13.828;2023-04-10T02:41:54;17.33;;;13.57;;
9918;SDS011;4998;51.024;13.828;2023-04-10T02:44:21;16.30;;;14.03;;
9918;SDS011;4998;51.024;13.828;2023-04-10T02:46:48;20.27;;;14.67;;
9918;SDS011;4998;51.024;13.828;2023-04-10T02:49:15;15.70;;;13.40;;
9918;SDS011;4998;51.024;13.828;2023-04-10T02:51:43;17.20;;;13.70;;
9918;SDS011;4998;51.024;13.828;2023-04-10T02:54:10;16.50;;;13.77;;
9918;SDS011;4998;51.024;13.828;2023-04-10T02:56:37;17.60;;;13.60;;
9918;SDS011;4998;51.024;13.828;2023-04-10T02:59:04;18.20;;;14.83;;
9918;SDS011;4998;51.024;13.828;2023-04-10T03:01:32;15.77;;;13.67;;
9918;SDS011;4998;51.024;13.828;2023-04-10T03:03:59;16.60;;;13.23;;
9918;SDS011;4998;51.024;13.828;2023-04-10T03:06:27;15.67;;;13.47;;
9918;SDS011;4998;51.024;13.828;2023-04-10T03:08:56;17.50;;;14.10;;
9918;SDS011;4998;51.024;13.828;2023-04-10T03:11:23;17.40;;;13.50;;
9918;SDS011;4998;51.024;13.828;2023-04-10T03:13:51;17.97;;;14.23;;
9918;SDS011;4998;51.024;13.828;2023-04-10T03:16:18;18.23;;;12.70;;
9918;SDS011;4998;51.024;13.828;2023-04-10T03:18:45;17.20;;;13.60;;
9918;SDS011;4998;51.024;13.828;2023-04-10T03:21:12;16.00;;;13.50;;
9918;SDS011;4998;51.024;13.828;2023-04-10T03:23:39;15.23;;;12.23;;
9918;SDS011;4998;51.024;13.828;2023-04-10T03:26:07;16.40;;;13.20;;
9918;SDS011;4998;51.024;13.828;2023-04-10T03:28:34;15.13;;;12.63;;
9918;SDS011;4998;51.024;13.828;2023-04-10T03:31:02;15.97;;;12.80;;
9918;SDS011;4998;51.024;13.828;2023-04-10T03:33:29;16.57;;;13.30;;
9918;SDS011;4998;51.024;13.828;2023-04-10T03:35:56;16.10;;;13.53;;
9918;SDS011;4998;51.024;13.828;2023-04-10T03:38:23;18.20;;;13.87;;
9918;SDS011;4998;51.024;13.828;2023-04-10T03:40:50;14.90;;;12.90;;
9918;SDS011;4998;51.024;13.828;2023-04-10T03:43:19;17.07;;;12.97;;
9918;SDS011;4998;51.024;13.828;2023-04-10T03:45:46;16.93;;;13.43;;
9918;SDS011;4998;51.024;13.828;2023-04-10T03:48:13;15.80;;;12.90;;
9918;SDS011;4998;51.024;13.828;2023-04-10T03:50:40;17.63;;;12.37;;
9918;SDS011;4998;51.024;13.828;2023-04-10T03:53:07;15.17;;;12.90;;
9918;SDS011;4998;51.024;13.828;2023-04-10T03:55:34;14.80;;;12.40;;
9918;SDS011;4998;51.024;13.828;2023-04-10T03:58:02;15.70;;;12.20;;
9918;SDS011;4998;51.024;13.828;2023-04-10T04:00:31;14.03;;;12.00;;
9918;SDS011;4998;51.024;13.828;2023-04-10T04:02:58;15.27;;;12.17;;
9918;SDS011;4998;51.024;13.828;2023-04-10T04:05:27;16.47;;;12.10;;
9918;SDS011;4998;51.024;13.828;2023-04-10T04:07:54;15.70;;;11.80;;
9918;SDS011;4998;51.024;13.828;2023-04-10T04:10:22;14.93;;;12.23;;
9918;SDS011;4998;51.024;13.828;2023-04-10T04:12:49;16.43;;;13.20;;
9918;SDS011;4998;51.024;13.828;2023-04-10T04:15:16;16.73;;;13.27;;
9918;SDS011;4998;51.024;13.828;2023-04-10T04:17:45;16.90;;;13.80;;
9918;SDS011;4998;51.024;13.828;2023-04-10T04:20:12;14.10;;;12.33;;
9918;SDS011;4998;51.024;13.828;2023-04-10T04:22:39;17.00;;;14.10;;
9918;SDS011;4998;51.024;13.828;2023-04-10T04:25:07;13.70;;;11.77;;
9918;SDS011;4998;51.024;13.828;2023-04-10T04:27:35;16.50;;;12.30;;
9918;SDS011;4998;51.024;13.828;2023-04-10T04:30:02;15.17;;;12.23;;
9918;SDS011;4998;51.024;13.828;2023-04-10T04:32:30;18.20;;;13.10;;
9918;SDS011;4998;51.024;13.828;2023-04-10T04:34:58;15.60;;;12.60;;
9918;SDS011;4998;51.024;13.828;2023-04-10T04:37:25;14.53;;;12.10;;
9918;SDS011;4998;51.024;13.828;2023-04-10T04:39:52;15.30;;;12.00;;
9918;SDS011;4998;51.024;13.828;2023-04-10T04:42:19;15.57;;;12.27;;
9918;SDS011;4998;51.024;13.828;2023-04-10T04:44:47;15.50;;;12.53;;
9918;SDS011;4998;51.024;13.828;2023-04-10T04:47:15;14.43;;;12.00;;
9918;SDS011;4998;51.024;13.828;2023-04-10T04:49:42;14.60;;;11.67;;
9918;SDS011;4998;51.024;13.828;2023-04-10T04:52:10;16.47;;;12.43;;
9918;SDS011;4998;51.024;13.828;2023-04-10T04:54:37;15.87;;;12.17;;
9918;SDS011;4998;51.024;13.828;2023-04-10T04:57:05;17.00;;;12.67;;
9918;SDS011;4998;51.024;13.828;2023-04-10T04:59:32;13.53;;;11.63;;
9918;SDS011;4998;51.024;13.828;2023-04-10T05:02:00;13.80;;;11.20;;
9918;SDS011;4998;51.024;13.828;2023-04-10T05:04:27;15.70;;;12.60;;
9918;SDS011;4998;51.024;13.828;2023-04-10T05:06:54;14.57;;;11.73;;
9918;SDS011;4998;51.024;13.828;2023-04-10T05:09:22;15.50;;;12.23;;
9918;SDS011;4998;51.024;13.828;2023-04-10T05:11:49;14.17;;;11.67;;
9918;SDS011;4998;51.024;13.828;2023-04-10T05:14:19;14.87;;;11.60;;
9918;SDS011;4998;51.024;13.828;2023-04-10T05:16:46;14.67;;;12.40;;
9918;SDS011;4998;51.024;13.828;2023-04-10T05:19:13;15.83;;;12.60;;
9918;SDS011;4998;51.024;13.828;2023-04-10T05:21:41;14.87;;;11.97;;
9918;SDS011;4998;51.024;13.828;2023-04-10T05:24:08;16.67;;;12.60;;
9918;SDS011;4998;51.024;13.828;2023-04-10T05:26:36;14.27;;;11.70;;
9918;SDS011;4998;51.024;13.828;2023-04-10T05:29:05;15.07;;;12.70;;
9918;SDS011;4998;51.024;13.828;2023-04-10T05:31:32;14.47;;;11.80;;
9918;SDS011;4998;51.024;13.828;2023-04-10T05:33:59;14.83;;;12.33;;
9918;SDS011;4998;51.024;13.828;2023-04-10T05:36:26;15.50;;;12.23;;
9918;SDS011;4998;51.024;13.828;2023-04-10T05:38:53;16.53;;;11.97;;
9918;SDS011;4998;51.024;13.828;2023-04-10T05:41:20;15.67;;;12.30;;
9918;SDS011;4998;51.024;13.828;2023-04-10T05:43:48;14.00;;;12.37;;
9918;SDS011;4998;51.024;13.828;2023-04-10T05:46:15;14.30;;;12.07;;
9918;SDS011;4998;51.024;13.828;2023-04-10T05:48:42;14.93;;;12.50;;
9918;SDS011;4998;51.024;13.828;2023-04-10T05:51:09;16.73;;;12.93;;
9918;SDS011;4998;51.024;13.828;2023-04-10T05:53:36;14.87;;;12.17;;
9918;SDS011;4998;51.024;13.828;2023-04-10T05:56:03;14.20;;;12.30;;
9918;SDS011;4998;51.024;13.828;2023-04-10T05:58:31;15.23;;;12.77;;
9918;SDS011;4998;51.024;13.828;2023-04-10T06:00:59;13.80;;;12.03;;
9918;SDS011;4998;51.024;13.828;2023-04-10T06:03:26;14.77;;;12.53;;
9918;SDS011;4998;51.024;13.828;2023-04-10T06:05:54;15.23;;;12.33;;
9918;SDS011;4998;51.024;13.828;2023-04-10T06:08:22;14.13;;;12.10;;
9918;SDS011;4998;51.024;13.828;2023-04-10T06:10:49;16.23;;;12.80;;
9918;SDS011;4998;51.024;13.828;2023-04-10T06:13:16;16.80;;;13.43;;
9918;SDS011;4998;51.024;13.828;2023-04-10T06:15:43;16.60;;;13.30;;
9918;SDS011;4998;51.024;13.828;2023-04-10T06:18:12;14.30;;;12.40;;
9918;SDS011;4998;51.024;13.828;2023-04-10T06:20:39;14.87;;;12.03;;
9918;SDS011;4998;51.024;13.828;2023-04-10T06:23:06;14.60;;;12.27;;
9918;SDS011;4998;51.024;13.828;2023-04-10T06:25:33;13.90;;;12.10;;
9918;SDS011;4998;51.024;13.828;2023-04-10T06:28:00;13.77;;;12.00;;
9918;SDS011;4998;51.024;13.828;2023-04-10T06:30:27;13.30;;;11.90;;
9918;SDS011;4998;51.024;13.828;2023-04-10T06:32:54;16.10;;;11.70;;
9918;SDS011;4998;51.024;13.828;2023-04-10T06:35:23;15.10;;;12.30;;
9918;SDS011;4998;51.024;13.828;2023-04-10T06:37:50;14.07;;;12.37;;
9918;SDS011;4998;51.024;13.828;2023-04-10T06:40:17;13.37;;;11.30;;
9918;SDS011;4998;51.024;13.828;2023-04-10T06:42:44;13.53;;;11.63;;
9918;SDS011;4998;51.024;13.828;2023-04-10T06:45:11;12.83;;;11.50;;
9918;SDS011;4998;51.024;13.828;2023-04-10T06:47:38;12.90;;;11.50;;
9918;SDS011;4998;51.024;13.828;2023-04-10T06:50:05;14.00;;;11.73;;
9918;SDS011;4998;51.024;13.828;2023-04-10T06:52:34;12.97;;;11.57;;
9918;SDS011;4998;51.024;13.828;2023-04-10T06:55:02;15.53;;;12.30;;
9918;SDS011;4998;51.024;13.828;2023-04-10T06:57:29;12.60;;;10.63;;
9918;SDS011;4998;51.024;13.828;2023-04-10T06:59:56;14.77;;;11.57;;
9918;SDS011;4998;51.024;13.828;2023-04-10T07:02:23;12.90;;;11.00;;
9918;SDS011;4998;51.024;13.828;2023-04-10T07:04:50;12.27;;;10.43;;
9918;SDS011;4998;51.024;13.828;2023-04-10T07:07:17;12.53;;;11.03;;
9918;SDS011;4998;51.024;13.828;2023-04-10T07:09:46;13.47;;;11.10;;
9918;SDS011;4998;51.024;13.828;2023-04-10T07:12:13;14.00;;;11.20;;
9918;SDS011;4998;51.024;13.828;2023-04-10T07:14:40;15.00;;;11.57;;
9918;SDS011;4998;51.024;13.828;2023-04-10T07:17:07;13.03;;;11.33;;
9918;SDS011;4998;51.024;13.828;2023-04-10T07:19:34;13.67;;;11.30;;
9918;SDS011;4998;51.024;13.828;2023-04-10T07:22:02;11.87;;;10.33;;
9918;SDS011;4998;51.024;13.828;2023-04-10T07:24:29;14.50;;;11.63;;
9918;SDS011;4998;51.024;13.828;2023-04-10T07:26:58;13.10;;;11.50;;
9918;SDS011;4998;51.024;13.828;2023-04-10T07:29:26;14.37;;;11.73;;
9918;SDS011;4998;51.024;13.828;2023-04-10T07:31:53;14.50;;;11.47;;
9918;SDS011;4998;51.024;13.828;2023-04-10T07:34:20;13.60;;;11.27;;
9918;SDS011;4998;51.024;13.828;2023-04-10T07:36:48;13.03;;;11.63;;
9918;SDS011;4998;51.024;13.828;2023-04-10T07:39:15;13.43;;;11.40;;
9918;SDS011;4998;51.024;13.828;2023-04-10T07:41:42;12.77;;;10.63;;
9918;SDS011;4998;51.024;13.828;2023-04-10T07:44:11;15.33;;;12.00;;
9918;SDS011;4998;51.024;13.828;2023-04-10T07:46:38;14.80;;;12.27;;
9918;SDS011;4998;51.024;13.828;2023-04-10T07:49:05;14.20;;;12.10;;
9918;SDS011;4998;51.024;13.828;2023-04-10T07:51:32;14.17;;;12.07;;
9918;SDS011;4998;51.024;13.828;2023-04-10T07:54:01;13.90;;;11.80;;
9918;SDS011;4998;51.024;13.828;2023-04-10T07:56:29;13.83;;;11.80;;
9918;SDS011;4998;51.024;13.828;2023-04-10T07:58:57;14.80;;;12.60;;
9918;SDS011;4998;51.024;13.828;2023-04-10T08:01:27;14.90;;;12.50;;
9918;SDS011;4998;51.024;13.828;2023-04-10T08:03:54;16.13;;;13.03;;
9918;SDS011;4998;51.024;13.828;2023-04-10T08:06:21;15.67;;;12.80;;
9918;SDS011;4998;51.024;13.828;2023-04-10T08:08:48;15.67;;;12.40;;
9918;SDS011;4998;51.024;13.828;2023-04-10T08:11:23;15.63;;;12.57;;
9918;SDS011;4998;51.024;13.828;2023-04-10T08:13:52;15.90;;;12.20;;
9918;SDS011;4998;51.024;13.828;2023-04-10T08:16:21;15.43;;;12.87;;
9918;SDS011;4998;51.024;13.828;2023-04-10T08:18:50;13.60;;;12.00;;
9918;SDS011;4998;51.024;13.828;2023-04-10T08:21:18;13.87;;;12.37;;
9918;SDS011;4998;51.024;13.828;2023-04-10T08:23:46;14.33;;;12.60;;
9918;SDS011;4998;51.024;13.828;2023-04-10T08:26:16;14.30;;;12.03;;
9918;SDS011;4998;51.024;13.828;2023-04-10T08:28:45;14.30;;;11.80;;
9918;SDS011;4998;51.024;13.828;2023-04-10T08:31:14;13.07;;;11.60;;
9918;SDS011;4998;51.024;13.828;2023-04-10T08:33:41;13.80;;;11.47;;
9918;SDS011;4998;51.024;13.828;2023-04-10T08:36:10;12.97;;;11.43;;
9918;SDS011;4998;51.024;13.828;2023-04-10T08:38:39;15.20;;;12.33;;
9918;SDS011;4998;51.024;13.828;2023-04-10T08:41:08;14.57;;;12.40;;
9918;SDS011;4998;51.024;13.828;2023-04-10T08:43:36;13.60;;;11.70;;
9918;SDS011;4998;51.024;13.828;2023-04-10T08:46:03;15.00;;;12.13;;
9918;SDS011;4998;51.024;13.828;2023-04-10T08:48:34;16.13;;;12.37;;
9918;SDS011;4998;51.024;13.828;2023-04-10T08:51:04;14.60;;;12.20;;
9918;SDS011;4998;51.024;13.828;2023-04-10T08:53:36;14.07;;;11.60;;
9918;SDS011;4998;51.024;13.828;2023-04-10T08:56:06;14.07;;;11.10;;
9918;SDS011;4998;51.024;13.828;2023-04-10T08:58:37;15.07;;;12.40;;
9918;SDS011;4998;51.024;13.828;2023-04-10T09:01:04;13.87;;;11.20;;
9918;SDS011;4998;51.024;13.828;2023-04-10T09:03:32;14.43;;;11.20;;
9918;SDS011;4998;51.024;13.828;2023-04-10T09:06:00;12.63;;;10.47;;
9918;SDS011;4998;51.024;13.828;2023-04-10T09:08:29;11.37;;;9.67;;
9918;SDS011;4998;51.024;13.828;2023-04-10T09:10:58;10.43;;;9.00;;
9918;SDS011;4998;51.024;13.828;2023-04-10T09:13:34;12.17;;;9.70;;
9918;SDS011;4998;51.024;13.828;2023-04-10T09:16:03;11.60;;;9.57;;
9918;SDS011;4998;51.024;13.828;2023-04-10T09:18:39;13.23;;;10.10;;
9918;SDS011;4998;51.024;13.828;2023-04-10T09:21:07;10.93;;;9.73;;
9918;SDS011;4998;51.024;13.828;2023-04-10T09:23:36;12.70;;;10.30;;
9918;SDS011;4998;51.024;13.828;2023-04-10T09:26:06;12.53;;;10.17;;
9918;SDS011;4998;51.024;13.828;2023-04-10T09:28:55;14.03;;;10.70;;
9918;SDS011;4998;51.024;13.828;2023-04-10T09:31:27;13.17;;;10.30;;
9918;SDS011;4998;51.024;13.828;2023-04-10T09:34:09;13.63;;;11.40;;
9918;SDS011;4998;51.024;13.828;2023-04-10T09:36:38;12.40;;;9.90;;
9918;SDS011;4998;51.024;13.828;2023-04-10T09:39:06;12.83;;;10.73;;
9918;SDS011;4998;51.024;13.828;2023-04-10T09:41:36;13.00;;;10.70;;
9918;SDS011;4998;51.024;13.828;2023-04-10T09:44:15;11.57;;;9.77;;
9918;SDS011;4998;51.024;13.828;2023-04-10T09:46:43;12.30;;;10.47;;
9918;SDS011;4998;51.024;13.828;2023-04-10T09:49:11;10.70;;;9.60;;
9918;SDS011;4998;51.024;13.828;2023-04-10T09:51:39;11.60;;;9.63;;
9918;SDS011;4998;51.024;13.828;2023-04-10T09:54:06;11.40;;;9.80;;
9918;SDS011;4998;51.024;13.828;2023-04-10T09:56:35;10.07;;;8.87;;
9918;SDS011;4998;51.024;13.828;2023-04-10T09:59:05;11.70;;;9.00;;
9918;SDS011;4998;51.024;13.828;2023-04-10T10:01:32;10.93;;;9.00;;
9918;SDS011;4998;51.024;13.828;2023-04-10T10:04:00;10.60;;;9.30;;
9918;SDS011;4998;51.024;13.828;2023-04-10T10:06:29;10.10;;;8.87;;
9918;SDS011;4998;51.024;13.828;2023-04-10T10:08:57;10.53;;;7.83;;
9918;SDS011;4998;51.024;13.828;2023-04-10T10:11:29;8.77;;;7.43;;
9918;SDS011;4998;51.024;13.828;2023-04-10T10:14:02;9.50;;;8.27;;
9918;SDS011;4998;51.024;13.828;2023-04-10T10:16:33;10.07;;;8.30;;
9918;SDS011;4998;51.024;13.828;2023-04-10T10:19:05;8.50;;;7.60;;
9918;SDS011;4998;51.024;13.828;2023-04-10T10:21:38;10.17;;;8.13;;
9918;SDS011;4998;51.024;13.828;2023-04-10T10:24:07;9.57;;;8.17;;
9918;SDS011;4998;51.024;13.828;2023-04-10T10:26:35;8.43;;;7.57;;
9918;SDS011;4998;51.024;13.828;2023-04-10T10:29:06;8.40;;;6.37;;
9918;SDS011;4998;51.024;13.828;2023-04-10T10:31:35;7.80;;;7.03;;
9918;SDS011;4998;51.024;13.828;2023-04-10T10:34:03;7.53;;;6.83;;
9918;SDS011;4998;51.024;13.828;2023-04-10T10:36:34;13.47;;;10.90;;
9918;SDS011;4998;51.024;13.828;2023-04-10T10:41:50;10.30;;;7.40;;
9918;SDS011;4998;51.024;13.828;2023-04-10T10:44:27;8.00;;;7.20;;
9918;SDS011;4998;51.024;13.828;2023-04-10T10:47:04;6.80;;;6.13;;
9918;SDS011;4998;51.024;13.828;2023-04-10T10:49:51;7.53;;;6.50;;
9918;SDS011;4998;51.024;13.828;2023-04-10T10:57:56;6.77;;;6.17;;
9918;SDS011;4998;51.024;13.828;2023-04-10T11:01:03;7.20;;;6.50;;
9918;SDS011;4998;51.024;13.828;2023-04-10T11:03:33;19.50;;;15.80;;
9918;SDS011;4998;51.024;13.828;2023-04-10T11:06:01;14.30;;;12.80;;
9918;SDS011;4998;51.024;13.828;2023-04-10T11:11:17;9.47;;;8.00;;
9918;SDS011;4998;51.024;13.828;2023-04-10T11:16:47;8.27;;;7.27;;
9918;SDS011;4998;51.024;13.828;2023-04-10T11:19:14;8.50;;;7.60;;
9918;SDS011;4998;51.024;13.828;2023-04-10T11:22:00;9.83;;;7.70;;
9918;SDS011;4998;51.024;13.828;2023-04-10T11:24:52;9.17;;;7.03;;
9918;SDS011;4998;51.024;13.828;2023-04-10T11:27:42;10.30;;;7.60;;
9918;SDS011;4998;51.024;13.828;2023-04-10T11:30:26;9.03;;;8.00;;
9918;SDS011;4998;51.024;13.828;2023-04-10T11:32:56;11.93;;;9.13;;
9918;SDS011;4998;51.024;13.828;2023-04-10T11:35:24;53.93;;;40.10;;
9918;SDS011;4998;51.024;13.828;2023-04-10T11:38:06;22.27;;;17.97;;
9918;SDS011;4998;51.024;13.828;2023-04-10T11:40:34;13.57;;;10.60;;
9918;SDS011;4998;51.024;13.828;2023-04-10T11:43:11;12.00;;;9.13;;
9918;SDS011;4998;51.024;13.828;2023-04-10T11:45:39;10.27;;;8.90;;
9918;SDS011;4998;51.024;13.828;2023-04-10T11:48:07;11.47;;;8.97;;
9918;SDS011;4998;51.024;13.828;2023-04-10T11:50:34;9.30;;;8.30;;
9918;SDS011;4998;51.024;13.828;2023-04-10T11:53:01;9.13;;;7.57;;
9918;SDS011;4998;51.024;13.828;2023-04-10T11:55:43;8.00;;;7.10;;
9918;SDS011;4998;51.024;13.828;2023-04-10T12:00:56;8.93;;;7.53;;
9918;SDS011;4998;51.024;13.828;2023-04-10T12:03:38;9.13;;;8.17;;
9918;SDS011;4998;51.024;13.828;2023-04-10T12:06:07;8.50;;;7.63;;
9918;SDS011;4998;51.024;13.828;2023-04-10T12:08:36;8.77;;;7.00;;
9918;SDS011;4998;51.024;13.828;2023-04-10T12:11:05;9.70;;;8.30;;
9918;SDS011;4998;51.024;13.828;2023-04-10T12:13:33;9.10;;;7.10;;
9918;SDS011;4998;51.024;13.828;2023-04-10T12:16:01;9.43;;;7.60;;
9918;SDS011;4998;51.024;13.828;2023-04-10T12:18:31;8.17;;;7.37;;
9918;SDS011;4998;51.024;13.828;2023-04-10T12:21:00;8.27;;;7.40;;
9918;SDS011;4998;51.024;13.828;2023-04-10T12:23:29;8.07;;;7.23;;
9918;SDS011;4998;51.024;13.828;2023-04-10T12:26:09;8.03;;;6.77;;
9918;SDS011;4998;51.024;13.828;2023-04-10T12:28:38;8.97;;;6.67;;
9918;SDS011;4998;51.024;13.828;2023-04-10T12:31:06;7.17;;;6.43;;
9918;SDS011;4998;51.024;13.828;2023-04-10T12:33:34;7.87;;;6.50;;
9918;SDS011;4998;51.024;13.828;2023-04-10T12:36:02;7.50;;;6.53;;
9918;SDS011;4998;51.024;13.828;2023-04-10T12:38:36;7.27;;;6.57;;
9918;SDS011;4998;51.024;13.828;2023-04-10T12:41:05;7.37;;;6.20;;
9918;SDS011;4998;51.024;13.828;2023-04-10T12:43:34;7.07;;;6.37;;
9918;SDS011;4998;51.024;13.828;2023-04-10T12:46:02;6.90;;;6.20;;
9918;SDS011;4998;51.024;13.828;2023-04-10T12:48:30;6.40;;;5.80;;
9918;SDS011;4998;51.024;13.828;2023-04-10T12:50:56;7.00;;;6.20;;
9918;SDS011;4998;51.024;13.828;2023-04-10T12:53:25;6.97;;;6.27;;
9918;SDS011;4998;51.024;13.828;2023-04-10T12:55:56;6.60;;;5.90;;
9918;SDS011;4998;51.024;13.828;2023-04-10T12:58:27;7.23;;;6.20;;
9918;SDS011;4998;51.024;13.828;2023-04-10T13:00:56;6.93;;;6.33;;
9918;SDS011;4998;51.024;13.828;2023-04-10T13:03:24;7.07;;;6.37;;
9918;SDS011;4998;51.024;13.828;2023-04-10T13:05:52;7.20;;;6.07;;
9918;SDS011;4998;51.024;13.828;2023-04-10T13:08:19;6.30;;;5.70;;
9918;SDS011;4998;51.024;13.828;2023-04-10T13:10:48;9.00;;;5.50;;
9918;SDS011;4998;51.024;13.828;2023-04-10T13:13:15;6.00;;;5.40;;
9918;SDS011;4998;51.024;13.828;2023-04-10T13:15:42;6.20;;;5.60;;
9918;SDS011;4998;51.024;13.828;2023-04-10T13:18:09;6.70;;;6.00;;
9918;SDS011;4998;51.024;13.828;2023-04-10T13:20:37;5.93;;;5.40;;
9918;SDS011;4998;51.024;13.828;2023-04-10T13:23:04;5.57;;;5.07;;
9918;SDS011;4998;51.024;13.828;2023-04-10T13:25:32;5.80;;;5.37;;
9918;SDS011;4998;51.024;13.828;2023-04-10T13:28:05;6.23;;;5.30;;
9918;SDS011;4998;51.024;13.828;2023-04-10T13:30:35;8.13;;;5.60;;
9918;SDS011;4998;51.024;13.828;2023-04-10T13:33:03;5.93;;;5.23;;
9918;SDS011;4998;51.024;13.828;2023-04-10T13:35:30;5.93;;;5.30;;
9918;SDS011;4998;51.024;13.828;2023-04-10T13:37:57;5.63;;;5.13;;
9918;SDS011;4998;51.024;13.828;2023-04-10T13:40:25;4.93;;;4.50;;
9918;SDS011;4998;51.024;13.828;2023-04-10T13:42:52;5.47;;;4.97;;
9918;SDS011;4998;51.024;13.828;2023-04-10T13:45:20;5.77;;;5.27;;
9918;SDS011;4998;51.024;13.828;2023-04-10T13:47:48;5.17;;;4.67;;
9918;SDS011;4998;51.024;13.828;2023-04-10T13:50:15;5.27;;;4.77;;
9918;SDS011;4998;51.024;13.828;2023-04-10T13:52:42;4.70;;;4.30;;
9918;SDS011;4998;51.024;13.828;2023-04-10T13:55:09;5.20;;;4.70;;
9918;SDS011;4998;51.024;13.828;2023-04-10T13:57:36;4.93;;;4.47;;
9918;SDS011;4998;51.024;13.828;2023-04-10T14:00:05;7.23;;;4.73;;
9918;SDS011;4998;51.024;13.828;2023-04-10T14:02:35;4.20;;;3.80;;
9918;SDS011;4998;51.024;13.828;2023-04-10T14:05:03;4.80;;;4.30;;
9918;SDS011;4998;51.024;13.828;2023-04-10T14:07:31;4.73;;;4.33;;
9918;SDS011;4998;51.024;13.828;2023-04-10T14:09:58;4.67;;;4.17;;
9918;SDS011;4998;51.024;13.828;2023-04-10T14:12:25;4.17;;;3.87;;
9918;SDS011;4998;51.024;13.828;2023-04-10T14:14:53;4.50;;;4.10;;
9918;SDS011;4998;51.024;13.828;2023-04-10T14:17:21;4.40;;;4.00;;
9918;SDS011;4998;51.024;13.828;2023-04-10T14:19:50;4.50;;;3.53;;
9918;SDS011;4998;51.024;13.828;2023-04-10T14:22:18;4.03;;;3.67;;
9918;SDS011;4998;51.024;13.828;2023-04-10T14:24:45;3.63;;;3.33;;
9918;SDS011;4998;51.024;13.828;2023-04-10T14:27:12;3.90;;;3.60;;
9918;SDS011;4998;51.024;13.828;2023-04-10T14:29:39;4.20;;;3.80;;
9918;SDS011;4998;51.024;13.828;2023-04-10T14:32:07;4.07;;;3.77;;
9918;SDS011;4998;51.024;13.828;2023-04-10T14:34:34;3.60;;;3.30;;
9918;SDS011;4998;51.024;13.828;2023-04-10T14:37:02;4.00;;;3.70;;
9918;SDS011;4998;51.024;13.828;2023-04-10T14:39:29;6.53;;;3.20;;
9918;SDS011;4998;51.024;13.828;2023-04-10T14:41:58;4.30;;;3.70;;
9918;SDS011;4998;51.024;13.828;2023-04-10T14:44:26;4.20;;;3.80;;
9918;SDS011;4998;51.024;13.828;2023-04-10T14:46:54;4.33;;;3.93;;
9918;SDS011;4998;51.024;13.828;2023-04-10T14:49:21;4.47;;;4.10;;
9918;SDS011;4998;51.024;13.828;2023-04-10T14:51:48;4.13;;;3.73;;
9918;SDS011;4998;51.024;13.828;2023-04-10T14:54:17;4.00;;;3.60;;
9918;SDS011;4998;51.024;13.828;2023-04-10T14:56:46;4.60;;;4.20;;
9918;SDS011;4998;51.024;13.828;2023-04-10T14:59:13;4.90;;;4.50;;
9918;SDS011;4998;51.024;13.828;2023-04-10T15:01:41;4.90;;;4.50;;
9918;SDS011;4998;51.024;13.828;2023-04-10T15:04:09;4.90;;;4.10;;
9918;SDS011;4998;51.024;13.828;2023-04-10T15:06:36;4.83;;;4.40;;
9918;SDS011;4998;51.024;13.828;2023-04-10T15:09:03;4.30;;;4.00;;
9918;SDS011;4998;51.024;13.828;2023-04-10T15:11:32;16.47;;;14.23;;